Bayside, California
Current Conditions -  °F | °C
As of 3:53 PM on Thursday 18 Dec 2014 (Local Time) from KACV Reporting Station
Overcast Overcast  
Wind Chill: 58°   Ceiling: 8000
Heat Index: 58°   Visibility: 10mi
Dew Point: 45°   Wind: 8mph
Humidity: 62%   Direction: 160°SSE
Pressure: 29.97"   Gusts: NA
Location:  40.84°N, 124.06°W
Report Text: KACV 182353Z AUTO 16007KT 10SM SCT055 OVC080 14/07 A2997 RMK AO2 SLP154 T01440072 10150 20133 56017
Loading
Personal Weather Stations






























Interactive Weather Map New forecast layout! Learn more

10-Day Weather Forecast

Advertisements
Track Severe Weather on mobile